Aviation Digital Data Service (ADDS)

Output produced by METARs form (2315 UTC 18 April 2014)
found at http://aviationweather.gov/adds/metars/
 
KISP 181941Z 1820/1918 15005KT P6SM SCT030 BKN250 
     FM182300 18004KT P6SM SCT030 BKN250 
     FM190200 20003KT P6SM SCT020 BKN150 
     FM190600 24003KT P6SM SCT020 BKN150 
     FM191000 32006KT P6SM SCT250 
     FM191400 32010G18KT P6SM FEW250